createdAt,value
2017-11-11T00:00:01.799Z,6.90
2017-11-11T00:02:29.329Z,6.85
2017-11-11T00:04:56.851Z,6.55
2017-11-11T00:07:24.391Z,6.40
2017-11-11T00:09:51.915Z,6.75
2017-11-11T00:12:19.449Z,6.40
2017-11-11T00:14:46.970Z,6.57
2017-11-11T00:17:14.933Z,5.95
2017-11-11T00:19:42.446Z,6.32
2017-11-11T00:22:09.961Z,5.70
2017-11-11T00:24:37.509Z,5.65
2017-11-11T00:27:05.034Z,5.95
2017-11-11T00:29:32.982Z,6.22
2017-11-11T00:32:00.505Z,7.05
2017-11-11T00:34:28.038Z,6.32
2017-11-11T00:36:55.557Z,7.37
2017-11-11T00:39:23.085Z,7.03
2017-11-11T00:41:51.024Z,5.97
2017-11-11T00:44:18.566Z,7.47
2017-11-11T00:46:46.489Z,6.45
2017-11-11T00:49:14.036Z,7.03
2017-11-11T00:51:41.557Z,6.55
2017-11-11T00:54:09.078Z,6.70
2017-11-11T00:56:36.679Z,6.12
2017-11-11T00:59:04.219Z,6.00
2017-11-11T01:01:31.823Z,6.20
2017-11-11T01:03:59.342Z,7.70
2017-11-11T01:06:26.889Z,6.87
2017-11-11T01:08:54.401Z,7.62
2017-11-11T01:11:21.958Z,7.22
2017-11-11T01:13:49.874Z,8.00
2017-11-11T01:16:17.418Z,7.90
2017-11-11T01:18:44.934Z,7.45
2017-11-11T01:21:12.503Z,7.20
2017-11-11T01:23:40.029Z,6.85
2017-11-11T01:26:07.551Z,7.37
2017-11-11T01:28:35.107Z,6.75
2017-11-11T01:31:02.622Z,5.93
2017-11-11T01:33:30.559Z,7.57
2017-11-11T01:35:58.078Z,6.85
2017-11-11T01:38:26.009Z,6.28
2017-11-11T01:40:53.533Z,6.05
2017-11-11T01:43:21.490Z,6.18
2017-11-11T01:45:49.015Z,6.75
2017-11-11T01:48:16.537Z,6.70
2017-11-11T01:50:44.089Z,7.60
2017-11-11T01:53:11.624Z,7.40
2017-11-11T01:55:39.153Z,6.25
2017-11-11T01:58:06.689Z,6.32
2017-11-11T02:00:34.226Z,7.03
2017-11-11T02:03:01.751Z,8.45
2017-11-11T02:05:29.312Z,5.47
2017-11-11T02:07:56.841Z,7.40
2017-11-11T02:10:24.380Z,6.65
2017-11-11T02:12:51.919Z,5.43
2017-11-11T02:15:19.442Z,6.57
2017-11-11T02:17:47.375Z,5.72
2017-11-11T02:20:14.899Z,6.65
2017-11-11T02:22:42.434Z,5.90
2017-11-11T02:25:09.949Z,6.70
2017-11-11T02:27:37.518Z,5.50
2017-11-11T02:30:05.468Z,6.10
2017-11-11T02:32:32.998Z,7.00
2017-11-11T02:35:00.539Z,5.45
2017-11-11T02:37:28.067Z,6.07
2017-11-11T02:39:55.615Z,6.00
2017-11-11T02:42:23.140Z,5.93
2017-11-11T02:44:51.083Z,6.70
2017-11-11T02:47:18.598Z,5.20
2017-11-11T02:49:46.548Z,5.55
2017-11-11T02:52:14.060Z,5.12
2017-11-11T02:54:41.978Z,5.18
2017-11-11T02:57:09.525Z,4.70
2017-11-11T02:59:37.062Z,6.20
2017-11-11T03:02:04.999Z,5.90
2017-11-11T03:04:32.524Z,6.68
2017-11-11T03:07:00.071Z,5.85
2017-11-11T03:09:27.592Z,6.82
2017-11-11T03:11:55.175Z,5.95
2017-11-11T03:14:22.699Z,6.10
2017-11-11T03:16:50.221Z,5.72
2017-11-11T03:19:17.767Z,5.60
2017-11-11T03:21:45.311Z,7.00
2017-11-11T03:24:12.859Z,5.25
2017-11-11T03:26:40.374Z,5.22
2017-11-11T03:29:08.310Z,5.53
2017-11-11T03:31:35.841Z,5.10
2017-11-11T03:34:03.393Z,5.97
2017-11-11T03:36:31.312Z,5.55
2017-11-11T03:38:58.844Z,4.78
2017-11-11T03:41:26.403Z,6.10
2017-11-11T03:43:54.326Z,5.45
2017-11-11T03:46:21.876Z,6.05
2017-11-11T03:48:49.399Z,6.00
2017-11-11T03:51:16.948Z,5.10
2017-11-11T03:53:44.457Z,5.22
2017-11-11T03:56:12.012Z,5.22
2017-11-11T03:58:39.536Z,6.93
2017-11-11T04:01:07.060Z,4.93
2017-11-11T04:03:34.616Z,5.28
2017-11-11T04:06:02.125Z,6.10
2017-11-11T04:08:29.653Z,6.35
2017-11-11T04:10:57.175Z,5.82
2017-11-11T04:13:25.132Z,6.35
2017-11-11T04:15:52.665Z,5.40
2017-11-11T04:18:20.184Z,5.43
2017-11-11T04:20:47.718Z,5.85
2017-11-11T04:23:15.246Z,5.65
2017-11-11T04:25:43.182Z,4.65
2017-11-11T04:28:10.705Z,5.25
2017-11-11T04:30:38.270Z,4.70
2017-11-11T04:33:05.795Z,4.47
2017-11-11T04:35:33.306Z,6.32
2017-11-11T04:38:01.239Z,5.05
2017-11-11T04:40:28.758Z,4.72
2017-11-11T04:42:56.686Z,4.93
2017-11-11T04:45:24.211Z,4.65
2017-11-11T04:47:51.758Z,5.60
2017-11-11T04:50:19.286Z,4.40
2017-11-11T04:52:46.811Z,4.85
2017-11-11T04:55:14.748Z,4.60
2017-11-11T04:57:42.278Z,5.12
2017-11-11T05:00:10.214Z,4.80
2017-11-11T05:02:37.734Z,4.07
2017-11-11T05:05:05.295Z,5.20
2017-11-11T05:07:33.214Z,4.53
2017-11-11T05:10:00.792Z,4.40
2017-11-11T05:12:28.313Z,5.12
2017-11-11T05:14:56.234Z,4.43
2017-11-11T05:17:23.780Z,5.70
2017-11-11T05:19:51.692Z,5.07
2017-11-11T05:22:19.221Z,4.90
2017-11-11T05:24:47.133Z,4.20
2017-11-11T05:27:14.670Z,4.95
2017-11-11T05:29:42.592Z,4.40
2017-11-11T05:32:10.161Z,5.10
2017-11-11T05:34:37.710Z,5.45
2017-11-11T05:37:05.234Z,5.25
2017-11-11T05:39:32.773Z,4.72
2017-11-11T05:42:00.304Z,4.75
2017-11-11T05:44:27.842Z,5.65
2017-11-11T05:46:55.369Z,5.55
2017-11-11T05:49:22.897Z,4.85
2017-11-11T05:51:50.424Z,5.68
2017-11-11T05:54:17.979Z,5.70
2017-11-11T05:56:45.509Z,5.95
2017-11-11T05:59:13.021Z,5.72
2017-11-11T06:01:40.553Z,5.28
2017-11-11T06:04:08.079Z,5.95
2017-11-11T06:06:35.622Z,5.53
2017-11-11T06:09:03.564Z,5.80
2017-11-11T06:11:31.107Z,5.30
2017-11-11T06:13:58.628Z,5.18
2017-11-11T06:16:26.199Z,6.50
2017-11-11T06:18:53.731Z,5.70
2017-11-11T06:21:21.262Z,5.32
2017-11-11T06:23:49.199Z,5.95
2017-11-11T06:26:16.719Z,7.12
2017-11-11T06:28:44.658Z,6.87
2017-11-11T06:31:12.178Z,7.40
2017-11-11T06:33:39.723Z,6.95
2017-11-11T06:36:07.240Z,7.75
2017-11-11T06:38:34.803Z,6.45
2017-11-11T06:41:02.332Z,5.95
2017-11-11T06:43:29.860Z,5.90
2017-11-11T06:45:57.397Z,5.10
2017-11-11T06:48:25.306Z,6.55
2017-11-11T06:50:52.834Z,4.43
2017-11-11T06:53:20.754Z,5.57
2017-11-11T06:55:48.291Z,4.97
2017-11-11T06:58:16.212Z,4.43
2017-11-11T07:00:43.761Z,4.93
2017-11-11T07:03:11.286Z,4.40
2017-11-11T07:05:38.806Z,5.03
2017-11-11T07:08:06.338Z,3.70
2017-11-11T07:10:33.860Z,4.15
2017-11-11T07:13:01.394Z,4.82
2017-11-11T07:15:29.306Z,5.10
2017-11-11T07:17:56.852Z,4.47
2017-11-11T07:20:24.774Z,3.92
2017-11-11T07:22:52.311Z,5.10
2017-11-11T07:25:20.221Z,4.60
2017-11-11T07:27:47.741Z,4.65
2017-11-11T07:30:15.283Z,3.80
2017-11-11T07:32:42.797Z,3.97
2017-11-11T07:35:10.341Z,4.00
2017-11-11T07:37:37.866Z,3.85
2017-11-11T07:40:05.426Z,4.12
2017-11-11T07:42:32.955Z,3.85
2017-11-11T07:45:00.509Z,3.28
2017-11-11T07:47:28.037Z,3.47
2017-11-11T07:49:55.549Z,3.75
2017-11-11T07:52:23.072Z,3.92
2017-11-11T07:54:50.984Z,3.58
2017-11-11T07:57:18.532Z,4.12
2017-11-11T07:59:46.061Z,4.18
2017-11-11T08:02:13.605Z,3.95
2017-11-11T08:04:41.130Z,3.95
2017-11-11T08:07:09.071Z,4.03
2017-11-11T08:09:36.581Z,4.72
2017-11-11T08:12:04.499Z,5.00
2017-11-11T08:14:32.038Z,3.83
2017-11-11T08:16:59.556Z,3.05
2017-11-11T08:19:27.099Z,3.10
2017-11-11T08:21:54.618Z,2.55
2017-11-11T08:24:22.151Z,2.40
2017-11-11T08:26:49.661Z,2.58
2017-11-11T08:29:17.198Z,2.50
2017-11-11T08:31:44.708Z,3.00
2017-11-11T08:34:12.241Z,2.53
2017-11-11T08:36:39.763Z,3.22
2017-11-11T08:39:07.309Z,25.52
2017-11-11T08:41:34.851Z,14.63
2017-11-11T08:44:02.385Z,3.67
2017-11-11T08:46:30.306Z,10.55
2017-11-11T08:48:57.877Z,12.40
2017-11-11T08:51:25.400Z,3.42
2017-11-11T08:53:52.934Z,2.95
2017-11-11T08:56:20.455Z,3.42
2017-11-11T08:58:48.380Z,2.80
2017-11-11T09:01:15.896Z,4.85
2017-11-11T09:03:43.846Z,3.15
2017-11-11T09:06:11.358Z,4.57
2017-11-11T09:08:39.299Z,4.37
2017-11-11T09:11:06.828Z,4.57
2017-11-11T09:13:34.342Z,2.80
2017-11-11T09:16:01.888Z,3.35
2017-11-11T09:18:29.429Z,3.75
2017-11-11T09:20:56.979Z,4.25
2017-11-11T09:23:24.901Z,4.68
2017-11-11T09:25:52.441Z,5.43
2017-11-11T09:28:20.353Z,6.60
2017-11-11T09:30:47.898Z,8.43
2017-11-11T09:33:15.422Z,7.70
2017-11-11T09:35:42.954Z,5.43
2017-11-11T09:38:10.474Z,3.78
2017-11-11T09:40:38.013Z,5.55
2017-11-11T09:43:05.535Z,4.40
2017-11-11T09:45:33.077Z,4.50
2017-11-11T09:48:00.607Z,4.15
2017-11-11T09:50:28.203Z,4.60
2017-11-11T09:52:55.731Z,7.50
2017-11-11T09:55:23.667Z,4.43
2017-11-11T09:57:51.194Z,4.12
2017-11-11T10:00:18.750Z,5.47
2017-11-11T10:02:46.669Z,4.28
2017-11-11T10:05:14.209Z,4.03
2017-11-11T10:07:42.144Z,4.90
2017-11-11T10:10:09.716Z,4.85
2017-11-11T10:12:37.237Z,4.55
2017-11-11T10:15:05.175Z,5.60
2017-11-11T10:17:32.699Z,5.15
2017-11-11T10:20:00.263Z,12.00
2017-11-11T10:22:28.629Z,5.45
2017-11-11T10:24:56.212Z,5.22
2017-11-11T10:27:24.124Z,6.37
2017-11-11T10:29:51.667Z,4.80
2017-11-11T10:32:19.586Z,6.57
2017-11-11T10:34:47.150Z,11.57
2017-11-11T10:37:14.691Z,7.78
2017-11-11T10:39:42.600Z,5.45
2017-11-11T10:42:10.143Z,8.10
2017-11-11T10:44:38.068Z,17.87
2017-11-11T10:47:05.609Z,6.22
2017-11-11T10:49:33.148Z,10.00
2017-11-11T10:52:00.690Z,6.85
2017-11-11T10:54:28.201Z,6.55
2017-11-11T10:56:55.751Z,7.18
2017-11-11T10:59:23.283Z,7.47
2017-11-11T11:01:50.832Z,7.37
2017-11-11T11:04:18.350Z,7.30
2017-11-11T11:06:45.892Z,7.62
2017-11-11T11:09:13.445Z,8.00
2017-11-11T11:11:40.993Z,6.57
2017-11-11T11:14:08.525Z,7.35
2017-11-11T11:16:36.063Z,7.90
2017-11-11T11:19:04.019Z,7.90
2017-11-11T11:21:31.571Z,8.00
2017-11-11T11:23:59.093Z,8.50
2017-11-11T11:26:26.639Z,9.88
2017-11-11T11:28:54.551Z,8.98
2017-11-11T11:31:22.095Z,8.98
2017-11-11T11:33:50.023Z,9.25
2017-11-11T11:36:17.603Z,8.98
2017-11-11T11:38:45.128Z,9.10
2017-11-11T11:41:13.064Z,10.80
2017-11-11T11:43:40.582Z,10.50
2017-11-11T11:46:08.515Z,15.43
2017-11-11T11:48:36.045Z,11.20
2017-11-11T11:51:03.582Z,10.85
2017-11-11T11:53:31.109Z,10.40
2017-11-11T11:55:58.649Z,9.98
2017-11-11T11:58:26.557Z,9.15
2017-11-11T12:00:54.137Z,10.10
2017-11-11T12:03:21.653Z,10.68
2017-11-11T12:05:49.179Z,10.88
2017-11-11T12:08:16.714Z,10.85
2017-11-11T12:10:44.233Z,12.25
2017-11-11T12:13:11.765Z,10.30
2017-11-11T12:15:39.294Z,11.50
2017-11-11T12:18:06.825Z,13.90
2017-11-11T12:20:34.341Z,11.10
2017-11-11T12:23:01.890Z,12.10
2017-11-11T12:25:29.423Z,12.80
2017-11-11T12:27:56.958Z,11.82
2017-11-11T12:30:24.495Z,12.80
2017-11-11T12:32:52.042Z,13.18
2017-11-11T12:35:19.561Z,12.37
2017-11-11T12:37:47.101Z,12.88
2017-11-11T12:40:14.639Z,13.15
2017-11-11T12:42:42.575Z,13.40
2017-11-11T12:45:10.107Z,14.23
2017-11-11T12:47:37.649Z,13.90
2017-11-11T12:50:05.576Z,15.10
2017-11-11T12:52:33.124Z,14.87
2017-11-11T12:55:00.659Z,14.93
2017-11-11T12:57:28.211Z,14.57
2017-11-11T12:59:55.738Z,14.45
2017-11-11T13:02:23.282Z,14.65
2017-11-11T13:04:50.810Z,14.43
2017-11-11T13:07:18.346Z,17.30
2017-11-11T13:09:45.875Z,17.35
2017-11-11T13:12:13.421Z,19.15
2017-11-11T13:14:40.982Z,20.08
2017-11-11T13:17:08.510Z,19.60
2017-11-11T13:19:36.055Z,21.75
2017-11-11T13:22:03.593Z,22.55
2017-11-11T13:24:31.114Z,23.87
2017-11-11T13:26:58.640Z,24.63
2017-11-11T13:29:26.188Z,26.90
2017-11-11T13:31:53.710Z,28.15
2017-11-11T13:34:21.324Z,27.40
2017-11-11T13:36:49.251Z,30.65
2017-11-11T13:39:16.790Z,27.85
2017-11-11T13:41:44.317Z,29.15
2017-11-11T13:44:11.860Z,23.58
2017-11-11T13:46:39.393Z,24.17
2017-11-11T13:49:06.936Z,21.92
2017-11-11T13:51:34.474Z,20.23
2017-11-11T13:54:02.023Z,19.55
2017-11-11T13:56:29.558Z,20.98
2017-11-11T13:58:57.193Z,17.87
2017-11-11T14:01:24.719Z,18.55
2017-11-11T14:03:52.262Z,17.65
2017-11-11T14:06:19.790Z,17.80
2017-11-11T14:08:47.324Z,16.50
2017-11-11T14:11:14.846Z,15.25
2017-11-11T14:13:42.419Z,13.73
2017-11-11T14:16:09.951Z,20.88
2017-11-11T14:18:37.883Z,11.65
2017-11-11T14:21:05.422Z,12.40
2017-11-11T14:23:32.967Z,11.68
2017-11-11T14:26:00.892Z,12.98
2017-11-11T14:28:28.427Z,14.32
2017-11-11T14:30:56.059Z,15.02
2017-11-11T14:33:23.623Z,15.32
2017-11-11T14:35:51.153Z,16.45
2017-11-11T14:38:18.737Z,15.10
2017-11-11T14:40:46.292Z,15.23
2017-11-11T14:43:13.847Z,16.45
2017-11-11T14:45:41.785Z,16.70
2017-11-11T14:48:09.382Z,18.87
2017-11-11T14:50:36.987Z,18.02
2017-11-11T14:53:04.914Z,17.70
2017-11-11T14:55:32.460Z,16.17
2017-11-11T14:58:00.055Z,15.85
2017-11-11T15:00:27.601Z,16.00
2017-11-11T15:02:55.140Z,15.80
2017-11-11T15:05:23.079Z,15.15
2017-11-11T15:07:50.613Z,15.10
2017-11-11T15:10:18.158Z,40.55
2017-11-11T15:12:45.682Z,21.50
2017-11-11T15:15:13.236Z,19.95
2017-11-11T15:17:40.771Z,14.43
2017-11-11T15:20:08.309Z,15.80
2017-11-11T15:22:35.826Z,15.40
2017-11-11T15:25:03.759Z,17.20
2017-11-11T15:27:31.292Z,18.42
2017-11-11T15:29:58.826Z,17.20
2017-11-11T15:32:26.349Z,16.62
2017-11-11T15:34:53.900Z,17.08
2017-11-11T15:37:21.818Z,19.70
2017-11-11T15:39:49.365Z,18.50
2017-11-11T15:42:16.881Z,17.55
2017-11-11T15:44:44.425Z,17.73
2017-11-11T15:47:11.961Z,17.98
2017-11-11T15:49:39.905Z,18.52
2017-11-11T15:52:07.467Z,19.35
2017-11-11T15:54:35.010Z,20.88
2017-11-11T15:57:02.559Z,22.87
2017-11-11T15:59:30.494Z,23.17
2017-11-11T16:01:58.024Z,22.20
2017-11-11T16:04:25.654Z,24.85
2017-11-11T16:06:53.591Z,25.62
2017-11-11T16:09:21.151Z,25.30
2017-11-11T16:11:48.678Z,23.98
2017-11-11T16:14:16.246Z,24.80
2017-11-11T16:16:43.790Z,26.25
2017-11-11T16:19:11.375Z,28.02
2017-11-11T16:21:38.994Z,24.83
2017-11-11T16:24:06.582Z,25.27
2017-11-11T16:26:34.125Z,22.60
2017-11-11T16:29:01.824Z,21.52
2017-11-11T16:31:29.375Z,20.75
2017-11-11T16:33:57.308Z,22.13
2017-11-11T16:36:24.850Z,21.48
2017-11-11T16:38:52.368Z,21.10
2017-11-11T16:41:19.919Z,22.70
2017-11-11T16:43:47.445Z,22.42
2017-11-11T16:46:14.993Z,22.75
2017-11-11T16:48:42.519Z,23.77
2017-11-11T16:51:10.063Z,24.20
2017-11-11T16:53:37.977Z,24.63
2017-11-11T16:56:05.515Z,24.55
2017-11-11T16:58:33.041Z,24.00
2017-11-11T17:01:00.590Z,27.50
2017-11-11T17:03:28.118Z,27.25
2017-11-11T17:05:56.054Z,26.33
2017-11-11T17:08:23.594Z,27.60
2017-11-11T17:10:51.861Z,28.48
2017-11-11T17:13:19.785Z,28.85
2017-11-11T17:15:47.326Z,36.83
2017-11-11T17:18:15.247Z,33.65
2017-11-11T17:20:42.801Z,32.78
2017-11-11T17:23:10.347Z,30.92
2017-11-11T17:25:37.901Z,30.45
2017-11-11T17:28:05.413Z,30.23
2017-11-11T17:30:32.962Z,28.85
2017-11-11T17:33:00.870Z,29.58
2017-11-11T17:35:28.413Z,30.05
2017-11-11T17:37:55.965Z,28.20
2017-11-11T17:40:23.494Z,30.37
2017-11-11T17:42:51.035Z,23.52
2017-11-11T17:45:18.561Z,23.20
2017-11-11T17:47:46.103Z,18.12
2017-11-11T17:50:13.634Z,15.00
2017-11-11T17:52:41.560Z,16.92
2017-11-11T17:55:09.093Z,17.10
2017-11-11T17:57:37.145Z,16.85
2017-11-11T18:00:05.083Z,16.77
2017-11-11T18:02:32.888Z,17.25
2017-11-11T18:05:00.422Z,18.35
2017-11-11T18:07:27.980Z,18.73
2017-11-11T18:09:55.518Z,17.45
2017-11-11T18:12:23.052Z,19.23
2017-11-11T18:14:50.649Z,17.90
2017-11-11T18:17:18.201Z,18.10
2017-11-11T18:19:45.779Z,24.00
2017-11-11T18:22:13.330Z,21.80
2017-11-11T18:24:40.873Z,17.77
2017-11-11T18:27:08.442Z,19.05
2017-11-11T18:29:36.360Z,16.75
2017-11-11T18:32:03.921Z,17.90
2017-11-11T18:34:31.467Z,18.40
2017-11-11T18:36:59.034Z,17.65
2017-11-11T18:39:26.636Z,18.83
2017-11-11T18:41:54.189Z,20.75
2017-11-11T18:44:22.111Z,19.25
2017-11-11T18:46:49.689Z,17.92
2017-11-11T18:49:17.217Z,21.00
2017-11-11T18:51:45.315Z,18.73
2017-11-11T18:54:12.832Z,18.83
2017-11-11T18:56:40.377Z,20.12
2017-11-11T18:59:07.922Z,21.90
2017-11-11T19:01:35.611Z,26.80
2017-11-11T19:04:03.130Z,27.95
2017-11-11T19:06:30.655Z,27.70
2017-11-11T19:08:58.221Z,26.95
2017-11-11T19:11:25.750Z,27.83
2017-11-11T19:13:53.289Z,32.40
2017-11-11T19:16:20.813Z,28.95
2017-11-11T19:18:48.801Z,30.12
2017-11-11T19:21:16.724Z,38.38
2017-11-11T19:23:44.263Z,35.88
2017-11-11T19:26:11.792Z,35.17
2017-11-11T19:28:39.329Z,33.13
2017-11-11T19:31:06.849Z,34.90
2017-11-11T19:33:34.789Z,33.70
2017-11-11T19:36:02.328Z,30.90
2017-11-11T19:38:29.880Z,30.95
2017-11-11T19:40:57.420Z,30.52
2017-11-11T19:43:24.961Z,27.48
2017-11-11T19:45:52.502Z,31.33
2017-11-11T19:48:20.049Z,30.55
2017-11-11T19:50:47.583Z,29.48
2017-11-11T19:53:15.136Z,30.35
2017-11-11T19:55:42.713Z,29.60
2017-11-11T19:58:10.264Z,32.33
2017-11-11T20:00:37.797Z,33.03
2017-11-11T20:03:05.352Z,34.13
2017-11-11T20:05:32.889Z,36.67
2017-11-11T20:08:00.444Z,37.58
2017-11-11T20:10:28.372Z,38.92
2017-11-11T20:12:55.931Z,41.97
2017-11-11T20:15:23.474Z,41.37
2017-11-11T20:17:51.025Z,45.58
2017-11-11T20:20:21.758Z,44.13
2017-11-11T20:22:49.299Z,44.45
2017-11-11T20:25:16.835Z,45.12
2017-11-11T20:27:44.424Z,43.33
2017-11-11T20:30:11.967Z,46.08
2017-11-11T20:32:41.837Z,48.10
2017-11-11T20:35:09.381Z,53.17
2017-11-11T20:37:36.924Z,52.50
2017-11-11T20:40:04.489Z,49.90
2017-11-11T20:42:32.023Z,47.97
2017-11-11T20:44:59.566Z,50.70
2017-11-11T20:47:27.101Z,50.60
2017-11-11T20:49:54.633Z,44.10
2017-11-11T20:52:22.174Z,43.40
2017-11-11T20:54:49.720Z,42.05
2017-11-11T20:57:17.265Z,44.88
2017-11-11T20:59:44.801Z,45.03
2017-11-11T21:02:12.330Z,40.58
2017-11-11T21:04:39.875Z,44.65
2017-11-11T21:07:07.417Z,43.58
2017-11-11T21:09:34.965Z,39.75
2017-11-11T21:12:02.903Z,38.60
2017-11-11T21:14:30.465Z,39.05
2017-11-11T21:16:57.987Z,37.42
2017-11-11T21:19:25.931Z,39.97
2017-11-11T21:21:53.461Z,38.92
2017-11-11T21:24:21.017Z,41.10
2017-11-11T21:26:48.552Z,41.47
2017-11-11T21:29:16.103Z,42.60
2017-11-11T21:31:43.648Z,43.78
2017-11-11T21:34:11.220Z,44.05
2017-11-11T21:36:38.754Z,43.53
2017-11-11T21:39:06.299Z,45.30
2017-11-11T21:41:33.841Z,44.47
2017-11-11T21:44:01.382Z,39.50
2017-11-11T21:46:29.304Z,45.38
2017-11-11T21:48:56.844Z,43.10
2017-11-11T21:51:24.376Z,42.88
2017-11-11T21:53:51.898Z,38.42
2017-11-11T21:56:19.461Z,42.55
2017-11-11T21:58:47.004Z,45.17
2017-11-11T22:01:14.553Z,41.25
2017-11-11T22:03:42.084Z,44.25
2017-11-11T22:06:09.649Z,44.78
2017-11-11T22:08:37.177Z,43.80
2017-11-11T22:11:04.725Z,45.85
2017-11-11T22:13:32.253Z,46.70
2017-11-11T22:16:00.202Z,51.58
2017-11-11T22:18:27.729Z,51.17
2017-11-11T22:20:55.283Z,48.45
2017-11-11T22:23:22.807Z,53.05
2017-11-11T22:25:50.362Z,53.50
2017-11-11T22:28:17.892Z,49.65
2017-11-11T22:30:45.473Z,50.15
2017-11-11T22:33:13.003Z,56.13
2017-11-11T22:35:40.518Z,50.95
2017-11-11T22:38:08.061Z,49.72
2017-11-11T22:40:35.991Z,49.85
2017-11-11T22:43:03.529Z,52.10
2017-11-11T22:45:31.054Z,49.67
2017-11-11T22:47:58.601Z,45.72
2017-11-11T22:50:26.122Z,49.55
2017-11-11T22:52:53.698Z,48.65
2017-11-11T22:55:21.623Z,44.42
2017-11-11T22:57:49.189Z,50.40
2017-11-11T23:00:28.623Z,45.83
2017-11-11T23:02:56.159Z,43.78
2017-11-11T23:05:23.701Z,45.63
2017-11-11T23:07:51.243Z,46.65
2017-11-11T23:10:18.793Z,44.60
2017-11-11T23:12:46.316Z,46.92
2017-11-11T23:15:13.890Z,45.40
2017-11-11T23:17:41.410Z,47.30
2017-11-11T23:20:08.940Z,45.42
2017-11-11T23:22:36.478Z,46.70
2017-11-11T23:25:03.998Z,45.85
2017-11-11T23:27:31.539Z,47.75
2017-11-11T23:29:59.061Z,45.65
2017-11-11T23:32:26.610Z,43.25
2017-11-11T23:34:54.134Z,45.33
2017-11-11T23:37:21.695Z,46.13
2017-11-11T23:39:49.265Z,44.13
2017-11-11T23:42:16.972Z,44.72
2017-11-11T23:44:44.519Z,45.72
2017-11-11T23:47:12.122Z,42.60
2017-11-11T23:49:39.661Z,41.05
2017-11-11T23:52:07.181Z,43.83
2017-11-11T23:54:34.727Z,44.75
2017-11-11T23:57:02.250Z,44.75
2017-11-11T23:59:29.985Z,43.58
